sensor_id;sensor_type;location;lat;lon;timestamp;P1;durP1;ratioP1;P2;durP2;ratioP2
67762;SDS011;54566;52.022;5.582;2022-08-19T00:02:13;12.00;;;9.45;;
67762;SDS011;54566;52.022;5.582;2022-08-19T00:04:39;13.98;;;9.52;;
67762;SDS011;54566;52.022;5.582;2022-08-19T00:07:05;16.65;;;9.30;;
67762;SDS011;54566;52.022;5.582;2022-08-19T00:09:32;13.02;;;10.02;;
67762;SDS011;54566;52.022;5.582;2022-08-19T00:11:58;16.05;;;10.32;;
67762;SDS011;54566;52.022;5.582;2022-08-19T00:14:24;16.05;;;9.23;;
67762;SDS011;54566;52.022;5.582;2022-08-19T00:16:51;12.90;;;9.73;;
67762;SDS011;54566;52.022;5.582;2022-08-19T00:19:19;11.75;;;9.23;;
67762;SDS011;54566;52.022;5.582;2022-08-19T00:21:45;12.50;;;10.60;;
67762;SDS011;54566;52.022;5.582;2022-08-19T00:24:12;13.15;;;10.02;;
67762;SDS011;54566;52.022;5.582;2022-08-19T00:26:40;16.20;;;10.52;;
67762;SDS011;54566;52.022;5.582;2022-08-19T00:29:06;13.30;;;10.38;;
67762;SDS011;54566;52.022;5.582;2022-08-19T00:31:33;15.48;;;12.00;;
67762;SDS011;54566;52.022;5.582;2022-08-19T00:33:59;20.88;;;11.23;;
67762;SDS011;54566;52.022;5.582;2022-08-19T00:36:25;13.52;;;10.48;;
67762;SDS011;54566;52.022;5.582;2022-08-19T00:38:53;12.43;;;10.23;;
67762;SDS011;54566;52.022;5.582;2022-08-19T00:41:20;11.38;;;9.93;;
67762;SDS011;54566;52.022;5.582;2022-08-19T00:44:02;11.82;;;10.60;;
67762;SDS011;54566;52.022;5.582;2022-08-19T00:46:29;12.75;;;10.57;;
67762;SDS011;54566;52.022;5.582;2022-08-19T00:48:56;16.05;;;10.52;;
67762;SDS011;54566;52.022;5.582;2022-08-19T00:51:23;10.25;;;8.93;;
67762;SDS011;54566;52.022;5.582;2022-08-19T00:53:51;12.77;;;9.70;;
67762;SDS011;54566;52.022;5.582;2022-08-19T00:56:17;20.98;;;10.70;;
67762;SDS011;54566;52.022;5.582;2022-08-19T00:58:43;23.80;;;10.23;;
67762;SDS011;54566;52.022;5.582;2022-08-19T01:01:09;14.18;;;10.00;;
67762;SDS011;54566;52.022;5.582;2022-08-19T01:03:35;12.52;;;10.10;;
67762;SDS011;54566;52.022;5.582;2022-08-19T01:06:01;15.13;;;9.65;;
67762;SDS011;54566;52.022;5.582;2022-08-19T01:08:27;13.48;;;10.50;;
67762;SDS011;54566;52.022;5.582;2022-08-19T01:10:55;15.18;;;10.48;;
67762;SDS011;54566;52.022;5.582;2022-08-19T01:13:23;11.15;;;9.55;;
67762;SDS011;54566;52.022;5.582;2022-08-19T01:15:56;14.27;;;9.68;;
67762;SDS011;54566;52.022;5.582;2022-08-19T01:18:24;15.70;;;9.45;;
67762;SDS011;54566;52.022;5.582;2022-08-19T01:20:51;9.33;;;8.43;;
67762;SDS011;54566;52.022;5.582;2022-08-19T01:23:19;11.95;;;7.68;;
67762;SDS011;54566;52.022;5.582;2022-08-19T01:25:50;10.25;;;7.22;;
67762;SDS011;54566;52.022;5.582;2022-08-19T01:28:21;9.55;;;7.07;;
67762;SDS011;54566;52.022;5.582;2022-08-19T01:30:47;13.88;;;6.95;;
67762;SDS011;54566;52.022;5.582;2022-08-19T01:33:14;9.43;;;7.30;;
67762;SDS011;54566;52.022;5.582;2022-08-19T01:35:40;9.38;;;7.97;;
67762;SDS011;54566;52.022;5.582;2022-08-19T01:38:08;9.85;;;8.80;;
67762;SDS011;54566;52.022;5.582;2022-08-19T01:40:36;11.02;;;9.00;;
67762;SDS011;54566;52.022;5.582;2022-08-19T01:43:03;11.02;;;8.63;;
67762;SDS011;54566;52.022;5.582;2022-08-19T01:45:31;15.40;;;8.80;;
67762;SDS011;54566;52.022;5.582;2022-08-19T01:47:57;12.85;;;8.27;;
67762;SDS011;54566;52.022;5.582;2022-08-19T01:50:23;11.02;;;8.80;;
67762;SDS011;54566;52.022;5.582;2022-08-19T01:52:50;9.93;;;8.68;;
67762;SDS011;54566;52.022;5.582;2022-08-19T01:55:18;15.40;;;9.05;;
67762;SDS011;54566;52.022;5.582;2022-08-19T01:57:46;11.20;;;7.97;;
67762;SDS011;54566;52.022;5.582;2022-08-19T02:00:14;9.43;;;7.30;;
67762;SDS011;54566;52.022;5.582;2022-08-19T02:02:41;9.88;;;6.57;;
67762;SDS011;54566;52.022;5.582;2022-08-19T02:05:07;7.97;;;6.82;;
67762;SDS011;54566;52.022;5.582;2022-08-19T02:07:34;8.65;;;6.65;;
67762;SDS011;54566;52.022;5.582;2022-08-19T02:10:03;12.70;;;6.57;;
67762;SDS011;54566;52.022;5.582;2022-08-19T02:12:29;13.05;;;7.80;;
67762;SDS011;54566;52.022;5.582;2022-08-19T02:14:55;7.65;;;5.97;;
67762;SDS011;54566;52.022;5.582;2022-08-19T02:17:21;6.10;;;5.50;;
67762;SDS011;54566;52.022;5.582;2022-08-19T02:19:47;11.20;;;5.43;;
67762;SDS011;54566;52.022;5.582;2022-08-19T02:22:13;5.18;;;4.68;;
67762;SDS011;54566;52.022;5.582;2022-08-19T02:24:39;7.18;;;4.97;;
67762;SDS011;54566;52.022;5.582;2022-08-19T02:27:05;7.60;;;4.82;;
67762;SDS011;54566;52.022;5.582;2022-08-19T02:29:31;5.47;;;4.53;;
67762;SDS011;54566;52.022;5.582;2022-08-19T02:31:57;5.00;;;4.50;;
67762;SDS011;54566;52.022;5.582;2022-08-19T02:34:24;4.90;;;4.22;;
67762;SDS011;54566;52.022;5.582;2022-08-19T02:36:50;4.88;;;3.88;;
67762;SDS011;54566;52.022;5.582;2022-08-19T02:39:16;4.95;;;4.28;;
67762;SDS011;54566;52.022;5.582;2022-08-19T02:41:43;12.88;;;4.32;;
67762;SDS011;54566;52.022;5.582;2022-08-19T02:44:09;7.57;;;4.43;;
67762;SDS011;54566;52.022;5.582;2022-08-19T02:46:35;4.80;;;3.83;;
67762;SDS011;54566;52.022;5.582;2022-08-19T02:49:03;5.85;;;4.50;;
67762;SDS011;54566;52.022;5.582;2022-08-19T02:51:37;5.03;;;4.13;;
67762;SDS011;54566;52.022;5.582;2022-08-19T02:54:04;7.32;;;4.32;;
67762;SDS011;54566;52.022;5.582;2022-08-19T02:56:31;11.23;;;6.15;;
67762;SDS011;54566;52.022;5.582;2022-08-19T02:58:57;10.05;;;6.32;;
67762;SDS011;54566;52.022;5.582;2022-08-19T03:01:24;8.90;;;5.80;;
67762;SDS011;54566;52.022;5.582;2022-08-19T03:03:51;8.70;;;5.63;;
67762;SDS011;54566;52.022;5.582;2022-08-19T03:06:17;11.43;;;5.75;;
67762;SDS011;54566;52.022;5.582;2022-08-19T03:08:44;8.50;;;6.63;;
67762;SDS011;54566;52.022;5.582;2022-08-19T03:11:19;12.43;;;7.03;;
67762;SDS011;54566;52.022;5.582;2022-08-19T03:13:45;8.43;;;6.38;;
67762;SDS011;54566;52.022;5.582;2022-08-19T03:18:39;12.88;;;8.63;;
67762;SDS011;54566;52.022;5.582;2022-08-19T03:21:05;11.05;;;8.00;;
67762;SDS011;54566;52.022;5.582;2022-08-19T03:23:32;12.23;;;9.15;;
67762;SDS011;54566;52.022;5.582;2022-08-19T03:25:58;10.32;;;8.20;;
67762;SDS011;54566;52.022;5.582;2022-08-19T03:28:24;12.90;;;9.50;;
67762;SDS011;54566;52.022;5.582;2022-08-19T03:31:06;13.02;;;9.95;;
67762;SDS011;54566;52.022;5.582;2022-08-19T03:33:34;14.30;;;10.15;;
67762;SDS011;54566;52.022;5.582;2022-08-19T03:36:10;13.73;;;10.68;;
67762;SDS011;54566;52.022;5.582;2022-08-19T03:38:38;14.20;;;8.48;;
67762;SDS011;54566;52.022;5.582;2022-08-19T03:41:05;14.52;;;9.65;;
67762;SDS011;54566;52.022;5.582;2022-08-19T03:43:34;12.77;;;9.02;;
67762;SDS011;54566;52.022;5.582;2022-08-19T03:46:01;18.27;;;8.32;;
67762;SDS011;54566;52.022;5.582;2022-08-19T03:48:27;12.50;;;8.70;;
67762;SDS011;54566;52.022;5.582;2022-08-19T03:50:54;14.35;;;7.63;;
67762;SDS011;54566;52.022;5.582;2022-08-19T03:53:20;11.95;;;7.15;;
67762;SDS011;54566;52.022;5.582;2022-08-19T03:55:46;8.95;;;6.20;;
67762;SDS011;54566;52.022;5.582;2022-08-19T03:58:12;13.10;;;6.95;;
67762;SDS011;54566;52.022;5.582;2022-08-19T04:00:41;11.05;;;6.45;;
67762;SDS011;54566;52.022;5.582;2022-08-19T04:03:07;7.53;;;5.38;;
67762;SDS011;54566;52.022;5.582;2022-08-19T04:05:33;12.18;;;6.85;;
67762;SDS011;54566;52.022;5.582;2022-08-19T04:07:59;12.20;;;8.70;;
67762;SDS011;54566;52.022;5.582;2022-08-19T04:10:25;15.30;;;8.70;;
67762;SDS011;54566;52.022;5.582;2022-08-19T04:12:52;14.95;;;8.77;;
67762;SDS011;54566;52.022;5.582;2022-08-19T04:15:18;12.13;;;7.47;;
67762;SDS011;54566;52.022;5.582;2022-08-19T04:17:45;38.72;;;9.20;;
67762;SDS011;54566;52.022;5.582;2022-08-19T04:20:11;10.55;;;7.95;;
67762;SDS011;54566;52.022;5.582;2022-08-19T04:22:37;10.00;;;7.53;;
67762;SDS011;54566;52.022;5.582;2022-08-19T04:25:04;9.65;;;8.57;;
67762;SDS011;54566;52.022;5.582;2022-08-19T04:27:30;10.60;;;8.98;;
67762;SDS011;54566;52.022;5.582;2022-08-19T04:29:56;11.95;;;8.32;;
67762;SDS011;54566;52.022;5.582;2022-08-19T04:32:22;10.23;;;8.32;;
67762;SDS011;54566;52.022;5.582;2022-08-19T04:34:48;10.50;;;8.50;;
67762;SDS011;54566;52.022;5.582;2022-08-19T04:37:14;11.63;;;8.15;;
67762;SDS011;54566;52.022;5.582;2022-08-19T04:39:40;10.15;;;8.18;;
67762;SDS011;54566;52.022;5.582;2022-08-19T04:42:25;8.15;;;7.35;;
67762;SDS011;54566;52.022;5.582;2022-08-19T04:45:08;8.05;;;7.03;;
67762;SDS011;54566;52.022;5.582;2022-08-19T04:47:36;10.95;;;7.15;;
67762;SDS011;54566;52.022;5.582;2022-08-19T04:50:02;8.02;;;7.10;;
67762;SDS011;54566;52.022;5.582;2022-08-19T04:52:28;9.13;;;7.45;;
67762;SDS011;54566;52.022;5.582;2022-08-19T04:54:57;17.15;;;8.77;;
67762;SDS011;54566;52.022;5.582;2022-08-19T04:57:23;12.88;;;8.82;;
67762;SDS011;54566;52.022;5.582;2022-08-19T04:59:49;60.85;;;11.73;;
67762;SDS011;54566;52.022;5.582;2022-08-19T05:02:19;60.30;;;12.38;;
67762;SDS011;54566;52.022;5.582;2022-08-19T05:04:44;217.57;;;13.70;;
67762;SDS011;54566;52.022;5.582;2022-08-19T05:07:11;27.25;;;11.05;;
67762;SDS011;54566;52.022;5.582;2022-08-19T05:09:37;13.55;;;9.27;;
67762;SDS011;54566;52.022;5.582;2022-08-19T05:12:03;47.78;;;8.25;;
67762;SDS011;54566;52.022;5.582;2022-08-19T05:14:30;91.97;;;8.70;;
67762;SDS011;54566;52.022;5.582;2022-08-19T05:16:56;19.35;;;6.82;;
67762;SDS011;54566;52.022;5.582;2022-08-19T05:19:22;8.43;;;6.03;;
67762;SDS011;54566;52.022;5.582;2022-08-19T05:22:07;7.72;;;6.43;;
67762;SDS011;54566;52.022;5.582;2022-08-19T05:24:51;9.45;;;6.65;;
67762;SDS011;54566;52.022;5.582;2022-08-19T05:27:17;6.97;;;6.22;;
67762;SDS011;54566;52.022;5.582;2022-08-19T05:29:43;6.70;;;5.97;;
67762;SDS011;54566;52.022;5.582;2022-08-19T05:32:09;7.05;;;6.05;;
67762;SDS011;54566;52.022;5.582;2022-08-19T05:34:36;9.48;;;6.45;;
67762;SDS011;54566;52.022;5.582;2022-08-19T05:37:03;7.00;;;6.30;;
67762;SDS011;54566;52.022;5.582;2022-08-19T05:39:31;8.90;;;5.90;;
67762;SDS011;54566;52.022;5.582;2022-08-19T05:41:58;6.20;;;5.60;;
67762;SDS011;54566;52.022;5.582;2022-08-19T05:44:25;8.07;;;6.43;;
67762;SDS011;54566;52.022;5.582;2022-08-19T05:46:52;8.37;;;6.37;;
67762;SDS011;54566;52.022;5.582;2022-08-19T05:49:18;8.00;;;7.10;;
67762;SDS011;54566;52.022;5.582;2022-08-19T05:51:44;9.52;;;7.63;;
67762;SDS011;54566;52.022;5.582;2022-08-19T05:54:10;10.88;;;8.20;;
67762;SDS011;54566;52.022;5.582;2022-08-19T05:56:38;9.73;;;7.70;;
67762;SDS011;54566;52.022;5.582;2022-08-19T05:59:05;16.88;;;9.25;;
67762;SDS011;54566;52.022;5.582;2022-08-19T06:01:34;14.90;;;10.57;;
67762;SDS011;54566;52.022;5.582;2022-08-19T06:04:00;19.17;;;11.27;;
67762;SDS011;54566;52.022;5.582;2022-08-19T06:06:27;20.23;;;11.27;;
67762;SDS011;54566;52.022;5.582;2022-08-19T06:08:53;26.15;;;12.65;;
67762;SDS011;54566;52.022;5.582;2022-08-19T06:11:24;30.52;;;14.30;;
67762;SDS011;54566;52.022;5.582;2022-08-19T06:13:51;34.13;;;16.30;;
67762;SDS011;54566;52.022;5.582;2022-08-19T06:16:18;33.95;;;18.05;;
67762;SDS011;54566;52.022;5.582;2022-08-19T06:18:48;32.72;;;19.50;;
67762;SDS011;54566;52.022;5.582;2022-08-19T06:21:16;43.33;;;23.33;;
67762;SDS011;54566;52.022;5.582;2022-08-19T06:23:42;48.25;;;27.02;;
67762;SDS011;54566;52.022;5.582;2022-08-19T06:26:11;48.83;;;27.40;;
67762;SDS011;54566;52.022;5.582;2022-08-19T06:28:37;54.35;;;29.92;;
67762;SDS011;54566;52.022;5.582;2022-08-19T06:31:07;68.10;;;34.42;;
67762;SDS011;54566;52.022;5.582;2022-08-19T06:33:33;53.08;;;30.63;;
67762;SDS011;54566;52.022;5.582;2022-08-19T06:35:59;70.00;;;33.72;;
67762;SDS011;54566;52.022;5.582;2022-08-19T06:38:25;65.25;;;36.42;;
67762;SDS011;54566;52.022;5.582;2022-08-19T06:41:03;76.57;;;35.63;;
67762;SDS011;54566;52.022;5.582;2022-08-19T06:43:29;69.88;;;35.85;;
67762;SDS011;54566;52.022;5.582;2022-08-19T06:45:55;70.78;;;34.63;;
67762;SDS011;54566;52.022;5.582;2022-08-19T06:48:21;65.68;;;35.15;;
67762;SDS011;54566;52.022;5.582;2022-08-19T06:50:47;73.38;;;37.78;;
67762;SDS011;54566;52.022;5.582;2022-08-19T06:53:14;75.15;;;39.10;;
67762;SDS011;54566;52.022;5.582;2022-08-19T06:55:42;76.05;;;41.00;;
67762;SDS011;54566;52.022;5.582;2022-08-19T06:58:08;78.55;;;41.78;;
67762;SDS011;54566;52.022;5.582;2022-08-19T07:00:34;84.60;;;42.95;;
67762;SDS011;54566;52.022;5.582;2022-08-19T07:03:01;84.72;;;43.63;;
67762;SDS011;54566;52.022;5.582;2022-08-19T07:05:27;84.25;;;44.00;;
67762;SDS011;54566;52.022;5.582;2022-08-19T07:07:53;76.18;;;41.25;;
67762;SDS011;54566;52.022;5.582;2022-08-19T07:10:19;85.07;;;42.80;;
67762;SDS011;54566;52.022;5.582;2022-08-19T07:12:51;80.50;;;43.65;;
67762;SDS011;54566;52.022;5.582;2022-08-19T07:15:18;87.65;;;44.38;;
67762;SDS011;54566;52.022;5.582;2022-08-19T07:17:46;79.32;;;42.90;;
67762;SDS011;54566;52.022;5.582;2022-08-19T07:20:12;83.28;;;45.00;;
67762;SDS011;54566;52.022;5.582;2022-08-19T07:22:39;82.18;;;43.92;;
67762;SDS011;54566;52.022;5.582;2022-08-19T07:25:06;79.72;;;42.40;;
67762;SDS011;54566;52.022;5.582;2022-08-19T07:27:32;77.55;;;43.47;;
67762;SDS011;54566;52.022;5.582;2022-08-19T07:29:59;79.07;;;42.35;;
67762;SDS011;54566;52.022;5.582;2022-08-19T07:32:25;85.57;;;41.65;;
67762;SDS011;54566;52.022;5.582;2022-08-19T07:34:51;76.43;;;41.55;;
67762;SDS011;54566;52.022;5.582;2022-08-19T07:37:17;81.53;;;43.53;;
67762;SDS011;54566;52.022;5.582;2022-08-19T07:39:43;76.82;;;41.83;;
67762;SDS011;54566;52.022;5.582;2022-08-19T07:42:11;85.20;;;44.50;;
67762;SDS011;54566;52.022;5.582;2022-08-19T07:44:39;76.55;;;42.47;;
67762;SDS011;54566;52.022;5.582;2022-08-19T07:47:05;70.53;;;39.35;;
67762;SDS011;54566;52.022;5.582;2022-08-19T07:49:31;76.55;;;41.42;;
67762;SDS011;54566;52.022;5.582;2022-08-19T07:52:00;71.20;;;39.83;;
67762;SDS011;54566;52.022;5.582;2022-08-19T07:54:27;74.85;;;41.63;;
67762;SDS011;54566;52.022;5.582;2022-08-19T07:56:54;67.55;;;40.38;;
67762;SDS011;54566;52.022;5.582;2022-08-19T07:59:20;65.85;;;39.58;;
67762;SDS011;54566;52.022;5.582;2022-08-19T08:01:46;69.10;;;39.75;;
67762;SDS011;54566;52.022;5.582;2022-08-19T08:04:13;66.70;;;38.22;;
67762;SDS011;54566;52.022;5.582;2022-08-19T08:06:57;69.05;;;38.65;;
67762;SDS011;54566;52.022;5.582;2022-08-19T08:09:43;67.97;;;38.63;;
67762;SDS011;54566;52.022;5.582;2022-08-19T08:12:15;69.60;;;38.70;;
67762;SDS011;54566;52.022;5.582;2022-08-19T08:14:45;68.85;;;39.17;;
67762;SDS011;54566;52.022;5.582;2022-08-19T08:17:12;61.38;;;36.35;;
67762;SDS011;54566;52.022;5.582;2022-08-19T08:19:39;56.95;;;35.30;;
67762;SDS011;54566;52.022;5.582;2022-08-19T08:22:06;56.90;;;31.65;;
67762;SDS011;54566;52.022;5.582;2022-08-19T08:24:33;59.88;;;34.03;;
67762;SDS011;54566;52.022;5.582;2022-08-19T08:29:27;53.40;;;30.27;;
67762;SDS011;54566;52.022;5.582;2022-08-19T08:31:54;52.28;;;30.08;;
67762;SDS011;54566;52.022;5.582;2022-08-19T08:34:20;52.13;;;28.75;;
67762;SDS011;54566;52.022;5.582;2022-08-19T08:36:46;47.97;;;29.05;;
67762;SDS011;54566;52.022;5.582;2022-08-19T08:39:13;50.20;;;29.73;;
67762;SDS011;54566;52.022;5.582;2022-08-19T08:44:45;54.17;;;31.73;;
67762;SDS011;54566;52.022;5.582;2022-08-19T08:47:17;47.20;;;27.63;;
67762;SDS011;54566;52.022;5.582;2022-08-19T08:52:15;43.65;;;25.85;;
67762;SDS011;54566;52.022;5.582;2022-08-19T08:54:44;48.05;;;27.05;;
67762;SDS011;54566;52.022;5.582;2022-08-19T08:57:13;46.15;;;26.85;;
67762;SDS011;54566;52.022;5.582;2022-08-19T08:59:41;44.33;;;27.30;;
67762;SDS011;54566;52.022;5.582;2022-08-19T09:02:08;43.13;;;27.05;;
67762;SDS011;54566;52.022;5.582;2022-08-19T09:04:35;41.38;;;27.50;;
67762;SDS011;54566;52.022;5.582;2022-08-19T09:09:35;42.70;;;25.38;;
67762;SDS011;54566;52.022;5.582;2022-08-19T09:17:12;38.42;;;23.65;;
67762;SDS011;54566;52.022;5.582;2022-08-19T09:19:52;41.38;;;24.25;;
67762;SDS011;54566;52.022;5.582;2022-08-19T09:22:18;36.53;;;23.35;;
67762;SDS011;54566;52.022;5.582;2022-08-19T09:24:50;35.13;;;22.77;;
67762;SDS011;54566;52.022;5.582;2022-08-19T09:27:19;39.80;;;24.00;;
67762;SDS011;54566;52.022;5.582;2022-08-19T09:29:46;44.10;;;25.23;;
67762;SDS011;54566;52.022;5.582;2022-08-19T09:32:14;34.78;;;23.45;;
67762;SDS011;54566;52.022;5.582;2022-08-19T09:34:42;39.13;;;25.10;;
67762;SDS011;54566;52.022;5.582;2022-08-19T09:37:08;39.20;;;23.17;;
67762;SDS011;54566;52.022;5.582;2022-08-19T09:39:34;38.38;;;21.95;;
67762;SDS011;54566;52.022;5.582;2022-08-19T09:42:00;33.55;;;19.83;;
67762;SDS011;54566;52.022;5.582;2022-08-19T09:44:28;34.58;;;20.95;;
67762;SDS011;54566;52.022;5.582;2022-08-19T09:46:54;35.92;;;20.83;;
67762;SDS011;54566;52.022;5.582;2022-08-19T09:49:21;31.55;;;20.33;;
67762;SDS011;54566;52.022;5.582;2022-08-19T09:51:50;29.25;;;19.65;;
67762;SDS011;54566;52.022;5.582;2022-08-19T09:54:18;34.58;;;18.80;;
67762;SDS011;54566;52.022;5.582;2022-08-19T09:56:44;33.78;;;18.23;;
67762;SDS011;54566;52.022;5.582;2022-08-19T09:59:10;29.15;;;18.65;;
67762;SDS011;54566;52.022;5.582;2022-08-19T10:01:37;26.63;;;17.02;;
67762;SDS011;54566;52.022;5.582;2022-08-19T10:04:03;25.45;;;17.00;;
67762;SDS011;54566;52.022;5.582;2022-08-19T10:06:36;28.10;;;17.67;;
67762;SDS011;54566;52.022;5.582;2022-08-19T10:09:03;31.27;;;19.20;;
67762;SDS011;54566;52.022;5.582;2022-08-19T10:11:31;27.17;;;17.05;;
67762;SDS011;54566;52.022;5.582;2022-08-19T10:13:57;22.27;;;15.63;;
67762;SDS011;54566;52.022;5.582;2022-08-19T10:16:24;29.40;;;16.33;;
67762;SDS011;54566;52.022;5.582;2022-08-19T10:18:50;26.77;;;16.05;;
67762;SDS011;54566;52.022;5.582;2022-08-19T10:21:18;25.42;;;14.38;;
67762;SDS011;54566;52.022;5.582;2022-08-19T10:23:45;23.05;;;14.70;;
67762;SDS011;54566;52.022;5.582;2022-08-19T10:26:12;21.83;;;14.53;;
67762;SDS011;54566;52.022;5.582;2022-08-19T10:28:39;24.02;;;15.05;;
67762;SDS011;54566;52.022;5.582;2022-08-19T10:31:10;27.92;;;15.73;;
67762;SDS011;54566;52.022;5.582;2022-08-19T10:33:36;29.98;;;17.10;;
67762;SDS011;54566;52.022;5.582;2022-08-19T10:36:07;28.45;;;16.60;;
67762;SDS011;54566;52.022;5.582;2022-08-19T10:38:34;24.67;;;16.05;;
67762;SDS011;54566;52.022;5.582;2022-08-19T10:41:07;28.40;;;16.50;;
67762;SDS011;54566;52.022;5.582;2022-08-19T10:43:33;27.70;;;17.60;;
67762;SDS011;54566;52.022;5.582;2022-08-19T10:46:03;24.75;;;16.40;;
67762;SDS011;54566;52.022;5.582;2022-08-19T10:48:31;37.67;;;17.70;;
67762;SDS011;54566;52.022;5.582;2022-08-19T10:50:58;29.23;;;16.30;;
67762;SDS011;54566;52.022;5.582;2022-08-19T10:53:42;34.13;;;17.90;;
67762;SDS011;54566;52.022;5.582;2022-08-19T10:56:09;34.75;;;17.80;;
67762;SDS011;54566;52.022;5.582;2022-08-19T10:58:54;25.95;;;16.45;;
67762;SDS011;54566;52.022;5.582;2022-08-19T11:01:21;27.90;;;16.48;;
67762;SDS011;54566;52.022;5.582;2022-08-19T11:03:47;24.10;;;15.43;;
67762;SDS011;54566;52.022;5.582;2022-08-19T11:06:13;30.38;;;16.27;;
67762;SDS011;54566;52.022;5.582;2022-08-19T11:08:39;29.52;;;15.25;;
67762;SDS011;54566;52.022;5.582;2022-08-19T11:11:07;23.48;;;14.55;;
67762;SDS011;54566;52.022;5.582;2022-08-19T11:13:35;26.80;;;16.40;;
67762;SDS011;54566;52.022;5.582;2022-08-19T11:16:07;29.60;;;18.20;;
67762;SDS011;54566;52.022;5.582;2022-08-19T11:18:43;24.65;;;16.38;;
67762;SDS011;54566;52.022;5.582;2022-08-19T11:21:29;25.05;;;18.17;;
67762;SDS011;54566;52.022;5.582;2022-08-19T11:23:59;29.20;;;18.50;;
67762;SDS011;54566;52.022;5.582;2022-08-19T11:26:25;27.65;;;17.92;;
67762;SDS011;54566;52.022;5.582;2022-08-19T11:28:52;31.48;;;18.90;;
67762;SDS011;54566;52.022;5.582;2022-08-19T11:31:22;31.10;;;18.67;;
67762;SDS011;54566;52.022;5.582;2022-08-19T11:36:19;34.17;;;19.58;;
67762;SDS011;54566;52.022;5.582;2022-08-19T11:38:45;28.65;;;19.15;;
67762;SDS011;54566;52.022;5.582;2022-08-19T11:43:39;34.03;;;18.95;;
67762;SDS011;54566;52.022;5.582;2022-08-19T11:46:06;26.23;;;20.40;;
67762;SDS011;54566;52.022;5.582;2022-08-19T11:48:33;35.15;;;20.13;;
67762;SDS011;54566;52.022;5.582;2022-08-19T11:50:59;30.05;;;19.40;;
67762;SDS011;54566;52.022;5.582;2022-08-19T11:53:27;30.85;;;20.60;;
67762;SDS011;54566;52.022;5.582;2022-08-19T11:55:55;27.98;;;18.40;;
67762;SDS011;54566;52.022;5.582;2022-08-19T11:58:21;31.25;;;20.50;;
67762;SDS011;54566;52.022;5.582;2022-08-19T12:00:47;38.72;;;20.33;;
67762;SDS011;54566;52.022;5.582;2022-08-19T12:03:13;33.65;;;22.33;;
67762;SDS011;54566;52.022;5.582;2022-08-19T12:05:39;29.02;;;18.35;;
67762;SDS011;54566;52.022;5.582;2022-08-19T12:08:06;40.40;;;21.45;;
67762;SDS011;54566;52.022;5.582;2022-08-19T12:10:33;35.33;;;22.17;;
67762;SDS011;54566;52.022;5.582;2022-08-19T12:12:59;38.88;;;20.58;;
67762;SDS011;54566;52.022;5.582;2022-08-19T12:15:25;32.15;;;21.05;;
67762;SDS011;54566;52.022;5.582;2022-08-19T12:17:53;34.20;;;20.67;;
67762;SDS011;54566;52.022;5.582;2022-08-19T12:20:21;35.13;;;20.30;;
67762;SDS011;54566;52.022;5.582;2022-08-19T12:22:47;38.22;;;23.38;;
67762;SDS011;54566;52.022;5.582;2022-08-19T12:25:13;37.17;;;22.95;;
67762;SDS011;54566;52.022;5.582;2022-08-19T12:27:39;33.72;;;21.67;;
67762;SDS011;54566;52.022;5.582;2022-08-19T12:30:06;43.92;;;21.27;;
67762;SDS011;54566;52.022;5.582;2022-08-19T12:32:33;39.50;;;22.67;;
67762;SDS011;54566;52.022;5.582;2022-08-19T12:34:59;33.00;;;22.60;;
67762;SDS011;54566;52.022;5.582;2022-08-19T12:37:25;30.30;;;19.67;;
67762;SDS011;54566;52.022;5.582;2022-08-19T12:39:51;32.58;;;21.00;;
67762;SDS011;54566;52.022;5.582;2022-08-19T12:42:17;31.05;;;19.60;;
67762;SDS011;54566;52.022;5.582;2022-08-19T12:44:44;37.30;;;19.55;;
67762;SDS011;54566;52.022;5.582;2022-08-19T12:47:11;32.50;;;21.05;;
67762;SDS011;54566;52.022;5.582;2022-08-19T12:49:38;33.67;;;17.98;;
67762;SDS011;54566;52.022;5.582;2022-08-19T12:52:04;34.55;;;19.85;;
67762;SDS011;54566;52.022;5.582;2022-08-19T12:54:31;29.33;;;18.85;;
67762;SDS011;54566;52.022;5.582;2022-08-19T12:56:57;26.05;;;17.08;;
67762;SDS011;54566;52.022;5.582;2022-08-19T12:59:24;21.45;;;14.57;;
67762;SDS011;54566;52.022;5.582;2022-08-19T13:01:50;18.67;;;11.75;;
67762;SDS011;54566;52.022;5.582;2022-08-19T13:04:16;16.08;;;11.15;;
67762;SDS011;54566;52.022;5.582;2022-08-19T13:06:42;18.88;;;13.68;;
67762;SDS011;54566;52.022;5.582;2022-08-19T13:09:08;31.80;;;16.80;;
67762;SDS011;54566;52.022;5.582;2022-08-19T13:11:35;29.90;;;14.48;;
67762;SDS011;54566;52.022;5.582;2022-08-19T13:14:02;23.27;;;16.23;;
67762;SDS011;54566;52.022;5.582;2022-08-19T13:16:29;29.05;;;16.88;;
67762;SDS011;54566;52.022;5.582;2022-08-19T13:18:55;40.95;;;18.95;;
67762;SDS011;54566;52.022;5.582;2022-08-19T13:21:23;35.73;;;18.83;;
67762;SDS011;54566;52.022;5.582;2022-08-19T13:23:49;32.22;;;19.00;;
67762;SDS011;54566;52.022;5.582;2022-08-19T13:26:16;34.95;;;20.50;;
67762;SDS011;54566;52.022;5.582;2022-08-19T13:28:43;35.20;;;21.58;;
67762;SDS011;54566;52.022;5.582;2022-08-19T13:31:29;33.10;;;19.85;;
67762;SDS011;54566;52.022;5.582;2022-08-19T13:34:15;34.05;;;20.52;;
67762;SDS011;54566;52.022;5.582;2022-08-19T13:36:41;33.45;;;19.92;;
67762;SDS011;54566;52.022;5.582;2022-08-19T13:39:07;35.28;;;20.80;;
67762;SDS011;54566;52.022;5.582;2022-08-19T13:41:34;33.42;;;19.75;;
67762;SDS011;54566;52.022;5.582;2022-08-19T13:44:00;31.47;;;20.27;;
67762;SDS011;54566;52.022;5.582;2022-08-19T13:46:27;28.45;;;17.73;;
67762;SDS011;54566;52.022;5.582;2022-08-19T13:48:54;29.92;;;18.50;;
67762;SDS011;54566;52.022;5.582;2022-08-19T13:51:21;26.38;;;19.70;;
67762;SDS011;54566;52.022;5.582;2022-08-19T13:53:47;31.38;;;20.35;;
67762;SDS011;54566;52.022;5.582;2022-08-19T13:56:13;34.28;;;21.10;;
67762;SDS011;54566;52.022;5.582;2022-08-19T13:58:40;35.00;;;22.42;;
67762;SDS011;54566;52.022;5.582;2022-08-19T14:01:06;36.40;;;21.58;;
67762;SDS011;54566;52.022;5.582;2022-08-19T14:03:33;30.77;;;19.58;;
67762;SDS011;54566;52.022;5.582;2022-08-19T14:05:59;29.80;;;18.30;;
67762;SDS011;54566;52.022;5.582;2022-08-19T14:08:25;28.92;;;17.95;;
67762;SDS011;54566;52.022;5.582;2022-08-19T14:13:19;28.38;;;13.07;;
67762;SDS011;54566;52.022;5.582;2022-08-19T14:15:45;21.50;;;12.63;;
67762;SDS011;54566;52.022;5.582;2022-08-19T14:18:12;19.95;;;12.65;;
67762;SDS011;54566;52.022;5.582;2022-08-19T14:20:39;20.20;;;11.90;;
67762;SDS011;54566;52.022;5.582;2022-08-19T14:23:05;17.42;;;10.23;;
67762;SDS011;54566;52.022;5.582;2022-08-19T14:25:31;14.50;;;6.93;;
67762;SDS011;54566;52.022;5.582;2022-08-19T14:27:57;40.45;;;10.82;;
67762;SDS011;54566;52.022;5.582;2022-08-19T14:30:24;21.23;;;10.45;;
67762;SDS011;54566;52.022;5.582;2022-08-19T14:32:52;19.65;;;8.65;;
67762;SDS011;54566;52.022;5.582;2022-08-19T14:35:19;21.45;;;11.05;;
67762;SDS011;54566;52.022;5.582;2022-08-19T14:40:14;25.80;;;17.50;;
67762;SDS011;54566;52.022;5.582;2022-08-19T14:42:40;30.80;;;27.08;;
67762;SDS011;54566;52.022;5.582;2022-08-19T14:45:07;12.55;;;9.15;;
67762;SDS011;54566;52.022;5.582;2022-08-19T14:47:33;19.15;;;12.15;;
67762;SDS011;54566;52.022;5.582;2022-08-19T14:49:59;13.10;;;11.65;;
67762;SDS011;54566;52.022;5.582;2022-08-19T14:52:26;11.68;;;7.03;;
67762;SDS011;54566;52.022;5.582;2022-08-19T14:54:52;10.35;;;7.65;;
67762;SDS011;54566;52.022;5.582;2022-08-19T14:57:18;26.88;;;23.20;;
67762;SDS011;54566;52.022;5.582;2022-08-19T14:59:45;10.57;;;7.43;;